createdAt,value
2023-04-06T00:04:29.532Z,97691.16
2023-04-06T00:09:32.680Z,97688.38
2023-04-06T00:14:37.288Z,97692.06
2023-04-06T00:19:40.537Z,97679.16
2023-04-06T00:24:43.856Z,97680.16
2023-04-06T00:29:48.485Z,97672.53
2023-04-06T00:34:51.843Z,97677.66
2023-04-06T00:39:54.988Z,97676.97
2023-04-06T00:45:02.453Z,97671.13
2023-04-06T00:50:06.522Z,97667.81
2023-04-06T00:55:11.304Z,97654.22
2023-04-06T01:00:20.605Z,97650.94
2023-04-06T01:05:28.107Z,97647.66
2023-04-06T01:10:34.730Z,97643.34
2023-04-06T01:15:48.603Z,97647.81
2023-04-06T01:20:57.655Z,97646.91
2023-04-06T01:26:04.475Z,97644.53
2023-04-06T01:31:09.822Z,97635.22
2023-04-06T01:36:21.275Z,97641.25
2023-04-06T01:41:32.594Z,97641.31
2023-04-06T01:46:36.017Z,97631.81
2023-04-06T01:51:41.787Z,97634.53
2023-04-06T01:56:51.550Z,97629.44
2023-04-06T02:02:04.062Z,97629.63
2023-04-06T02:07:08.958Z,97632.28
2023-04-06T02:12:13.737Z,97627.22
2023-04-06T02:17:17.278Z,97625.72
2023-04-06T02:22:20.918Z,97627.34
2023-04-06T02:27:25.632Z,97629.22
2023-04-06T02:32:29.006Z,97624.97
2023-04-06T02:37:33.250Z,97623.41
2023-04-06T02:42:37.840Z,97628.47
2023-04-06T02:47:42.335Z,97614.03
2023-04-06T02:52:46.834Z,97613.06
2023-04-06T02:57:51.808Z,97611.50
2023-04-06T03:02:58.718Z,97607.44
2023-04-06T03:08:03.673Z,97611.78
2023-04-06T03:13:18.715Z,97608.22
2023-04-06T03:18:27.859Z,97610.34
2023-04-06T03:23:33.174Z,97603.59
2023-04-06T03:28:39.983Z,97608.53
2023-04-06T03:33:44.120Z,97615.47
2023-04-06T03:38:54.639Z,97615.34
2023-04-06T03:43:59.526Z,97613.03
2023-04-06T03:49:03.267Z,97614.66
2023-04-06T03:54:07.228Z,97627.59
2023-04-06T03:59:12.034Z,97625.13
2023-04-06T04:04:15.427Z,97626.94
2023-04-06T04:09:18.793Z,97628.81
2023-04-06T04:14:23.586Z,97633.19
2023-04-06T04:19:27.304Z,97638.25
2023-04-06T04:24:32.663Z,97635.59
2023-04-06T04:29:37.595Z,97647.06
2023-04-06T04:34:47.527Z,97634.94
2023-04-06T04:40:02.175Z,97633.13
2023-04-06T04:45:11.236Z,97647.13
2023-04-06T04:50:16.247Z,97645.28
2023-04-06T04:55:22.289Z,97647.66
2023-04-06T05:00:31.881Z,97646.88
2023-04-06T05:05:36.896Z,97646.72
2023-04-06T05:10:42.304Z,97649.81
2023-04-06T05:15:47.334Z,97642.59
2023-04-06T05:21:00.031Z,97644.25
2023-04-06T05:26:14.899Z,97649.22
2023-04-06T05:31:19.974Z,97645.56
2023-04-06T05:36:27.330Z,97652.53
2023-04-06T05:41:30.697Z,97641.50
2023-04-06T05:46:35.709Z,97653.56
2023-04-06T05:51:40.632Z,97653.00
2023-04-06T05:56:44.576Z,97651.63
2023-04-06T06:01:50.863Z,97661.56
2023-04-06T06:06:56.000Z,97656.38
2023-04-06T06:12:05.231Z,97646.72
2023-04-06T06:17:10.655Z,97653.09
2023-04-06T06:22:13.984Z,97657.72
2023-04-06T06:27:21.540Z,97652.63
2023-04-06T06:32:27.256Z,97648.81
2023-04-06T06:37:31.677Z,97653.34
2023-04-06T06:42:36.822Z,97654.22
2023-04-06T06:47:52.198Z,97640.34
2023-04-06T06:52:57.241Z,97641.09
2023-04-06T06:58:00.503Z,97642.66
2023-04-06T07:03:05.636Z,97639.31
2023-04-06T07:08:09.140Z,97627.53
2023-04-06T07:13:13.378Z,97622.69
2023-04-06T07:18:18.516Z,97633.44
2023-04-06T07:23:22.608Z,97620.22
2023-04-06T07:28:25.837Z,97622.91
2023-04-06T07:33:32.482Z,97616.72
2023-04-06T07:38:36.461Z,97607.56
2023-04-06T07:43:41.094Z,97598.06
2023-04-06T07:48:46.409Z,97590.13
2023-04-06T07:53:50.473Z,97605.91
2023-04-06T07:58:56.633Z,97585.66
2023-04-06T08:04:03.479Z,97594.28
2023-04-06T08:09:06.900Z,97596.22
2023-04-06T08:14:10.278Z,97594.91
2023-04-06T08:19:18.185Z,97589.84
2023-04-06T08:24:21.457Z,97583.56
2023-04-06T08:29:24.708Z,97580.94
2023-04-06T08:34:29.442Z,97586.59
2023-04-06T08:39:34.753Z,97590.97
2023-04-06T08:44:38.907Z,97585.59
2023-04-06T08:49:45.716Z,97581.97
2023-04-06T08:54:49.843Z,97588.50
2023-04-06T08:59:53.731Z,97586.44
2023-04-06T09:04:59.787Z,97582.16
2023-04-06T09:10:03.305Z,97587.50
2023-04-06T09:15:07.538Z,97596.81
2023-04-06T09:20:14.161Z,97589.38
2023-04-06T09:25:22.412Z,97590.38
2023-04-06T09:30:26.030Z,97585.13
2023-04-06T09:35:32.409Z,97578.25
2023-04-06T09:40:35.650Z,97580.09
2023-04-06T09:45:39.221Z,97582.16
2023-04-06T09:50:44.130Z,97572.22
2023-04-06T09:55:48.540Z,97554.97
2023-04-06T10:01:00.726Z,97568.78
2023-04-06T10:06:09.474Z,97561.31
2023-04-06T10:11:13.146Z,97574.13
2023-04-06T10:16:16.793Z,97563.50
2023-04-06T10:21:25.968Z,97560.25
2023-04-06T10:26:29.550Z,97556.78
2023-04-06T10:31:33.324Z,97546.78
2023-04-06T10:36:38.980Z,97540.06
2023-04-06T10:41:45.823Z,97531.09
2023-04-06T10:46:55.949Z,97534.75
2023-04-06T10:52:01.213Z,97522.16
2023-04-06T10:57:04.587Z,97522.28
2023-04-06T11:02:07.898Z,97522.28
2023-04-06T11:07:12.722Z,97530.78
2023-04-06T11:12:23.319Z,97517.69
2023-04-06T11:17:30.233Z,97505.22
2023-04-06T11:22:35.929Z,97506.34
2023-04-06T11:27:39.970Z,97495.56
2023-04-06T11:32:44.524Z,97494.47
2023-04-06T11:37:50.437Z,97494.59
2023-04-06T11:42:57.116Z,97478.44
2023-04-06T11:48:01.684Z,97476.84
2023-04-06T11:53:06.362Z,97480.72
2023-04-06T11:58:09.675Z,97465.75
2023-04-06T12:03:13.238Z,97463.13
2023-04-06T12:08:18.085Z,97472.78
2023-04-06T12:13:21.392Z,97475.84
2023-04-06T12:18:24.649Z,97466.56
2023-04-06T12:23:29.180Z,97457.09
2023-04-06T12:28:32.295Z,97454.72
2023-04-06T12:33:35.522Z,97447.59
2023-04-06T12:38:41.356Z,97444.56
2023-04-06T12:43:45.321Z,97457.50
2023-04-06T12:48:49.125Z,97439.81
2023-04-06T12:53:54.065Z,97432.47
2023-04-06T12:58:57.531Z,97436.72
2023-04-06T13:04:01.134Z,97443.41
2023-04-06T13:09:06.653Z,97435.03
2023-04-06T13:14:09.865Z,97420.25
2023-04-06T13:19:13.078Z,97416.94
2023-04-06T13:24:18.285Z,97421.50
2023-04-06T13:29:21.858Z,97425.72
2023-04-06T13:34:25.257Z,97417.19
2023-04-06T13:39:29.921Z,97419.84
2023-04-06T13:44:33.890Z,97414.13
2023-04-06T13:49:37.986Z,97397.91
2023-04-06T13:54:43.068Z,97409.50
2023-04-06T13:59:46.327Z,97405.13
2023-04-06T14:04:49.472Z,97397.25
2023-04-06T14:09:54.107Z,97409.56
2023-04-06T14:14:57.308Z,97403.19
2023-04-06T14:20:01.055Z,97396.94
2023-04-06T14:25:06.128Z,97400.03
2023-04-06T14:30:10.519Z,97396.09
2023-04-06T14:35:14.038Z,97393.50
2023-04-06T14:40:18.986Z,97383.75
2023-04-06T14:45:22.816Z,97395.25
2023-04-06T14:50:26.384Z,97386.41
2023-04-06T14:55:31.073Z,97383.31
2023-04-06T15:00:34.261Z,97374.91
2023-04-06T15:05:37.454Z,97386.22
2023-04-06T15:10:41.993Z,97381.56
2023-04-06T15:15:45.094Z,97381.59
2023-04-06T15:20:48.780Z,97389.41
2023-04-06T15:25:54.094Z,97383.25
2023-04-06T15:30:58.491Z,97387.47
2023-04-06T15:36:07.148Z,97380.91
2023-04-06T15:41:14.254Z,97383.13
2023-04-06T15:46:17.292Z,97384.66
2023-04-06T15:51:20.781Z,97378.78
2023-04-06T15:56:25.509Z,97387.03
2023-04-06T16:01:28.878Z,97385.78
2023-04-06T16:06:32.604Z,97384.38
2023-04-06T16:11:37.758Z,97382.13
2023-04-06T16:16:43.405Z,97379.22
2023-04-06T16:21:47.595Z,97390.75
2023-04-06T16:26:52.392Z,97393.13
2023-04-06T16:31:56.410Z,97395.13
2023-04-06T16:36:59.663Z,97391.59
2023-04-06T16:42:04.289Z,97397.78
2023-04-06T16:47:07.747Z,97407.47
2023-04-06T16:52:11.232Z,97416.34
2023-04-06T16:57:16.107Z,97417.53
2023-04-06T17:02:19.390Z,97427.03
2023-04-06T17:07:26.662Z,97433.13
2023-04-06T17:12:31.413Z,97432.63
2023-04-06T17:17:34.710Z,97434.28
2023-04-06T17:22:37.851Z,97439.38
2023-04-06T17:27:42.577Z,97420.50
2023-04-06T17:32:46.304Z,97422.91
2023-04-06T17:37:49.542Z,97426.34
2023-04-06T17:42:54.051Z,97430.94
2023-04-06T17:47:57.137Z,97437.00
2023-04-06T17:53:00.312Z,97442.94
2023-04-06T17:58:06.028Z,97440.91
2023-04-06T18:03:09.147Z,97449.38
2023-04-06T18:08:12.762Z,97449.94
2023-04-06T18:13:17.502Z,97455.19
2023-04-06T18:18:20.748Z,97458.25
2023-04-06T18:23:24.171Z,97464.53
2023-04-06T18:28:28.927Z,97470.19
2023-04-06T18:33:32.484Z,97485.03
2023-04-06T18:38:35.565Z,97478.38
2023-04-06T18:43:40.338Z,97480.94
2023-04-06T18:48:44.346Z,97477.13
2023-04-06T18:53:47.866Z,97475.72
2023-04-06T18:58:52.447Z,97487.19
2023-04-06T19:03:56.649Z,97491.75
2023-04-06T19:09:02.367Z,97501.66
2023-04-06T19:14:07.379Z,97501.78
2023-04-06T19:19:10.936Z,97502.88
2023-04-06T19:24:14.724Z,97495.97
2023-04-06T19:29:19.506Z,97492.97
2023-04-06T19:34:24.047Z,97496.88
2023-04-06T19:39:27.947Z,97502.56
2023-04-06T19:44:33.506Z,97507.41
2023-04-06T19:49:40.972Z,97498.38
2023-04-06T19:54:46.937Z,97499.94
2023-04-06T19:59:51.549Z,97502.69
2023-04-06T20:04:54.647Z,97501.78
2023-04-06T20:09:57.801Z,97496.47
2023-04-06T20:15:02.477Z,97497.75
2023-04-06T20:20:09.617Z,97495.13
2023-04-06T20:25:13.165Z,97498.78
2023-04-06T20:30:18.009Z,97489.69
2023-04-06T20:35:21.353Z,97489.41
2023-04-06T20:40:25.951Z,97484.56
2023-04-06T20:45:30.923Z,97480.59
2023-04-06T20:50:36.351Z,97480.19
2023-04-06T20:55:41.988Z,97484.06
2023-04-06T21:00:46.671Z,97481.31
2023-04-06T21:05:53.308Z,97473.56
2023-04-06T21:10:57.093Z,97478.78
2023-04-06T21:16:02.194Z,97476.00
2023-04-06T21:21:05.880Z,97466.22
2023-04-06T21:26:09.078Z,97471.41
2023-04-06T21:31:16.449Z,97482.03
2023-04-06T21:36:19.694Z,97466.63
2023-04-06T21:41:22.938Z,97462.03
2023-04-06T21:46:28.053Z,97464.91
2023-04-06T21:51:32.326Z,97464.41
2023-04-06T21:56:35.605Z,97463.59
2023-04-06T22:01:40.224Z,97463.75
2023-04-06T22:06:43.603Z,97461.16
2023-04-06T22:11:46.860Z,97456.44
2023-04-06T22:16:51.440Z,97443.31
2023-04-06T22:21:54.850Z,97440.53
2023-04-06T22:26:58.406Z,97446.63
2023-04-06T22:32:03.172Z,97446.00
2023-04-06T22:37:06.350Z,97450.13
2023-04-06T22:42:09.419Z,97451.38
2023-04-06T22:47:14.466Z,97454.09
2023-04-06T22:52:17.834Z,97444.72
2023-04-06T22:57:22.581Z,97446.72
2023-04-06T23:02:27.544Z,97435.84
2023-04-06T23:07:32.692Z,97443.69
2023-04-06T23:12:36.037Z,97437.88
2023-04-06T23:17:41.944Z,97441.38
2023-04-06T23:22:45.138Z,97435.72
2023-04-06T23:27:48.293Z,97429.97
2023-04-06T23:32:52.820Z,97431.47
2023-04-06T23:37:56.006Z,97429.22
2023-04-06T23:42:59.113Z,97423.13
2023-04-06T23:48:03.850Z,97427.63
2023-04-06T23:53:07.095Z,97422.69
2023-04-06T23:58:10.409Z,97425.28
